sensor_id;sensor_type;location;lat;lon;timestamp;temperature;humidity
3198;DHT22;1611;49.394;11.136;2023-09-08T00:00:43;16.80;61.30
3198;DHT22;1611;49.394;11.136;2023-09-08T00:03:11;16.80;61.80
3198;DHT22;1611;49.394;11.136;2023-09-08T00:05:38;16.70;62.40
3198;DHT22;1611;49.394;11.136;2023-09-08T00:08:05;16.70;62.50
3198;DHT22;1611;49.394;11.136;2023-09-08T00:10:31;16.70;62.50
3198;DHT22;1611;49.394;11.136;2023-09-08T00:12:58;16.70;62.40
3198;DHT22;1611;49.394;11.136;2023-09-08T00:15:25;16.70;62.40
3198;DHT22;1611;49.394;11.136;2023-09-08T00:17:52;16.70;62.30
3198;DHT22;1611;49.394;11.136;2023-09-08T00:20:20;16.60;62.40
3198;DHT22;1611;49.394;11.136;2023-09-08T00:22:46;16.60;62.30
3198;DHT22;1611;49.394;11.136;2023-09-08T00:25:13;16.60;62.50
3198;DHT22;1611;49.394;11.136;2023-09-08T00:27:40;16.50;63.00
3198;DHT22;1611;49.394;11.136;2023-09-08T00:30:08;16.50;64.10
3198;DHT22;1611;49.394;11.136;2023-09-08T00:32:34;16.50;63.70
3198;DHT22;1611;49.394;11.136;2023-09-08T00:35:01;16.50;63.90
3198;DHT22;1611;49.394;11.136;2023-09-08T00:37:29;16.50;63.90
3198;DHT22;1611;49.394;11.136;2023-09-08T00:39:56;16.40;64.00
3198;DHT22;1611;49.394;11.136;2023-09-08T00:42:23;16.40;63.90
3198;DHT22;1611;49.394;11.136;2023-09-08T00:44:50;16.30;64.10
3198;DHT22;1611;49.394;11.136;2023-09-08T00:47:17;16.30;64.10
3198;DHT22;1611;49.394;11.136;2023-09-08T00:49:44;16.20;63.90
3198;DHT22;1611;49.394;11.136;2023-09-08T00:52:11;16.20;64.10
3198;DHT22;1611;49.394;11.136;2023-09-08T00:54:40;16.20;64.20
3198;DHT22;1611;49.394;11.136;2023-09-08T00:57:07;16.10;64.40
3198;DHT22;1611;49.394;11.136;2023-09-08T00:59:35;16.10;64.40
3198;DHT22;1611;49.394;11.136;2023-09-08T01:02:02;16.10;64.20
3198;DHT22;1611;49.394;11.136;2023-09-08T01:04:29;16.10;64.30
3198;DHT22;1611;49.394;11.136;2023-09-08T01:06:57;16.10;64.30
3198;DHT22;1611;49.394;11.136;2023-09-08T01:09:24;16.00;64.10
3198;DHT22;1611;49.394;11.136;2023-09-08T01:11:52;16.00;64.10
3198;DHT22;1611;49.394;11.136;2023-09-08T01:14:21;16.00;64.00
3198;DHT22;1611;49.394;11.136;2023-09-08T01:16:47;16.00;64.00
3198;DHT22;1611;49.394;11.136;2023-09-08T01:19:15;15.90;64.40
3198;DHT22;1611;49.394;11.136;2023-09-08T01:22:10;15.90;64.70
3198;DHT22;1611;49.394;11.136;2023-09-08T01:25:11;15.90;64.80
3198;DHT22;1611;49.394;11.136;2023-09-08T01:27:43;15.90;64.90
3198;DHT22;1611;49.394;11.136;2023-09-08T01:30:12;15.80;64.70
3198;DHT22;1611;49.394;11.136;2023-09-08T01:32:41;15.80;64.60
3198;DHT22;1611;49.394;11.136;2023-09-08T01:35:08;15.80;64.40
3198;DHT22;1611;49.394;11.136;2023-09-08T01:37:35;15.80;64.40
3198;DHT22;1611;49.394;11.136;2023-09-08T01:40:02;15.80;64.40
3198;DHT22;1611;49.394;11.136;2023-09-08T01:42:30;15.70;64.40
3198;DHT22;1611;49.394;11.136;2023-09-08T01:44:57;15.70;64.40
3198;DHT22;1611;49.394;11.136;2023-09-08T01:47:24;15.60;64.20
3198;DHT22;1611;49.394;11.136;2023-09-08T01:49:51;15.50;64.50
3198;DHT22;1611;49.394;11.136;2023-09-08T01:52:18;15.60;64.50
3198;DHT22;1611;49.394;11.136;2023-09-08T01:54:44;15.50;64.60
3198;DHT22;1611;49.394;11.136;2023-09-08T01:57:11;15.50;65.20
3198;DHT22;1611;49.394;11.136;2023-09-08T01:59:39;15.40;65.30
3198;DHT22;1611;49.394;11.136;2023-09-08T02:02:06;15.40;65.60
3198;DHT22;1611;49.394;11.136;2023-09-08T02:04:33;15.30;65.40
3198;DHT22;1611;49.394;11.136;2023-09-08T02:07:00;15.30;65.70
3198;DHT22;1611;49.394;11.136;2023-09-08T02:09:31;15.30;65.50
3198;DHT22;1611;49.394;11.136;2023-09-08T02:11:58;15.30;65.70
3198;DHT22;1611;49.394;11.136;2023-09-08T02:14:24;15.20;65.90
3198;DHT22;1611;49.394;11.136;2023-09-08T02:16:52;15.20;66.10
3198;DHT22;1611;49.394;11.136;2023-09-08T02:19:19;15.20;65.60
3198;DHT22;1611;49.394;11.136;2023-09-08T02:21:46;15.20;65.70
3198;DHT22;1611;49.394;11.136;2023-09-08T02:24:13;15.10;65.70
3198;DHT22;1611;49.394;11.136;2023-09-08T02:26:40;15.10;66.00
3198;DHT22;1611;49.394;11.136;2023-09-08T02:29:07;15.00;66.00
3198;DHT22;1611;49.394;11.136;2023-09-08T02:31:34;15.00;66.30
3198;DHT22;1611;49.394;11.136;2023-09-08T02:34:02;14.90;66.50
3198;DHT22;1611;49.394;11.136;2023-09-08T02:36:30;15.00;67.00
3198;DHT22;1611;49.394;11.136;2023-09-08T02:38:56;14.90;66.00
3198;DHT22;1611;49.394;11.136;2023-09-08T02:41:23;14.90;66.10
3198;DHT22;1611;49.394;11.136;2023-09-08T02:43:50;14.80;66.50
3198;DHT22;1611;49.394;11.136;2023-09-08T02:46:17;14.80;66.50
3198;DHT22;1611;49.394;11.136;2023-09-08T02:48:43;14.80;66.20
3198;DHT22;1611;49.394;11.136;2023-09-08T02:51:12;14.80;66.10
3198;DHT22;1611;49.394;11.136;2023-09-08T02:53:38;14.70;66.40
3198;DHT22;1611;49.394;11.136;2023-09-08T02:56:05;14.70;66.50
3198;DHT22;1611;49.394;11.136;2023-09-08T02:58:31;14.60;66.70
3198;DHT22;1611;49.394;11.136;2023-09-08T03:01:09;14.60;66.80
3198;DHT22;1611;49.394;11.136;2023-09-08T03:03:37;14.60;66.50
3198;DHT22;1611;49.394;11.136;2023-09-08T03:06:04;14.60;66.40
3198;DHT22;1611;49.394;11.136;2023-09-08T03:08:32;14.50;66.80
3198;DHT22;1611;49.394;11.136;2023-09-08T03:10:59;14.50;67.00
3198;DHT22;1611;49.394;11.136;2023-09-08T03:13:26;14.40;67.40
3198;DHT22;1611;49.394;11.136;2023-09-08T03:15:54;14.40;67.80
3198;DHT22;1611;49.394;11.136;2023-09-08T03:18:21;14.40;68.00
3198;DHT22;1611;49.394;11.136;2023-09-08T03:20:48;14.40;68.00
3198;DHT22;1611;49.394;11.136;2023-09-08T03:23:15;14.40;67.90
3198;DHT22;1611;49.394;11.136;2023-09-08T03:25:43;14.40;67.70
3198;DHT22;1611;49.394;11.136;2023-09-08T03:28:10;14.40;67.40
3198;DHT22;1611;49.394;11.136;2023-09-08T03:30:37;14.40;67.40
3198;DHT22;1611;49.394;11.136;2023-09-08T03:33:04;14.40;67.20
3198;DHT22;1611;49.394;11.136;2023-09-08T03:35:29;14.40;67.20
3198;DHT22;1611;49.394;11.136;2023-09-08T03:37:56;14.40;67.20
3198;DHT22;1611;49.394;11.136;2023-09-08T03:40:24;14.30;67.10
3198;DHT22;1611;49.394;11.136;2023-09-08T03:42:52;14.30;67.10
3198;DHT22;1611;49.394;11.136;2023-09-08T03:45:18;14.30;67.10
3198;DHT22;1611;49.394;11.136;2023-09-08T03:47:45;14.30;67.20
3198;DHT22;1611;49.394;11.136;2023-09-08T03:50:12;14.30;67.60
3198;DHT22;1611;49.394;11.136;2023-09-08T03:52:39;14.20;67.80
3198;DHT22;1611;49.394;11.136;2023-09-08T03:55:06;14.20;67.80
3198;DHT22;1611;49.394;11.136;2023-09-08T03:57:32;14.30;67.80
3198;DHT22;1611;49.394;11.136;2023-09-08T04:00:00;14.30;68.30
3198;DHT22;1611;49.394;11.136;2023-09-08T04:02:28;14.30;68.90
3198;DHT22;1611;49.394;11.136;2023-09-08T04:04:55;14.30;69.60
3198;DHT22;1611;49.394;11.136;2023-09-08T04:07:22;14.20;69.60
3198;DHT22;1611;49.394;11.136;2023-09-08T04:09:48;14.20;70.00
3198;DHT22;1611;49.394;11.136;2023-09-08T04:12:15;14.20;70.20
3198;DHT22;1611;49.394;11.136;2023-09-08T04:14:42;14.20;70.70
3198;DHT22;1611;49.394;11.136;2023-09-08T04:17:10;14.20;70.40
3198;DHT22;1611;49.394;11.136;2023-09-08T04:19:37;14.20;70.50
3198;DHT22;1611;49.394;11.136;2023-09-08T04:22:04;14.10;70.40
3198;DHT22;1611;49.394;11.136;2023-09-08T04:24:35;14.10;70.60
3198;DHT22;1611;49.394;11.136;2023-09-08T04:27:03;14.00;70.90
3198;DHT22;1611;49.394;11.136;2023-09-08T04:29:30;14.00;70.80
3198;DHT22;1611;49.394;11.136;2023-09-08T04:31:57;14.00;70.70
3198;DHT22;1611;49.394;11.136;2023-09-08T04:34:25;14.00;70.30
3198;DHT22;1611;49.394;11.136;2023-09-08T04:36:51;14.00;70.30
3198;DHT22;1611;49.394;11.136;2023-09-08T04:39:18;14.00;69.70
3198;DHT22;1611;49.394;11.136;2023-09-08T04:41:45;14.00;69.60
3198;DHT22;1611;49.394;11.136;2023-09-08T04:44:11;14.00;69.20
3198;DHT22;1611;49.394;11.136;2023-09-08T04:46:38;14.00;68.90
3198;DHT22;1611;49.394;11.136;2023-09-08T04:49:05;14.00;68.50
3198;DHT22;1611;49.394;11.136;2023-09-08T04:51:33;14.00;68.20
3198;DHT22;1611;49.394;11.136;2023-09-08T04:54:00;14.00;68.10
3198;DHT22;1611;49.394;11.136;2023-09-08T04:56:26;14.00;67.90
3198;DHT22;1611;49.394;11.136;2023-09-08T04:58:53;14.00;67.50
3198;DHT22;1611;49.394;11.136;2023-09-08T05:01:20;14.00;67.70
3198;DHT22;1611;49.394;11.136;2023-09-08T05:03:47;13.90;67.70
3198;DHT22;1611;49.394;11.136;2023-09-08T05:06:14;13.90;68.10
3198;DHT22;1611;49.394;11.136;2023-09-08T05:08:42;13.90;68.20
3198;DHT22;1611;49.394;11.136;2023-09-08T05:11:09;14.00;67.90
3198;DHT22;1611;49.394;11.136;2023-09-08T05:13:36;13.90;67.90
3198;DHT22;1611;49.394;11.136;2023-09-08T05:16:03;13.90;68.20
3198;DHT22;1611;49.394;11.136;2023-09-08T05:18:36;14.00;67.80
3198;DHT22;1611;49.394;11.136;2023-09-08T05:21:03;14.00;67.80
3198;DHT22;1611;49.394;11.136;2023-09-08T05:23:30;13.90;67.70
3198;DHT22;1611;49.394;11.136;2023-09-08T05:25:59;13.90;68.10
3198;DHT22;1611;49.394;11.136;2023-09-08T05:28:26;13.90;68.50
3198;DHT22;1611;49.394;11.136;2023-09-08T05:30:53;13.90;68.40
3198;DHT22;1611;49.394;11.136;2023-09-08T05:33:19;14.00;68.50
3198;DHT22;1611;49.394;11.136;2023-09-08T05:35:46;14.00;68.50
3198;DHT22;1611;49.394;11.136;2023-09-08T05:38:13;14.10;68.50
3198;DHT22;1611;49.394;11.136;2023-09-08T05:40:40;14.10;68.30
3198;DHT22;1611;49.394;11.136;2023-09-08T05:43:08;14.20;68.10
3198;DHT22;1611;49.394;11.136;2023-09-08T05:45:35;14.20;67.80
3198;DHT22;1611;49.394;11.136;2023-09-08T05:48:03;14.30;67.30
3198;DHT22;1611;49.394;11.136;2023-09-08T05:50:30;14.30;67.30
3198;DHT22;1611;49.394;11.136;2023-09-08T05:52:57;14.30;67.80
3198;DHT22;1611;49.394;11.136;2023-09-08T05:55:24;14.30;67.80
3198;DHT22;1611;49.394;11.136;2023-09-08T05:57:50;14.30;68.00
3198;DHT22;1611;49.394;11.136;2023-09-08T06:00:19;14.30;68.20
3198;DHT22;1611;49.394;11.136;2023-09-08T06:02:45;14.40;68.20
3198;DHT22;1611;49.394;11.136;2023-09-08T06:05:12;14.40;68.00
3198;DHT22;1611;49.394;11.136;2023-09-08T06:07:39;14.50;68.30
3198;DHT22;1611;49.394;11.136;2023-09-08T06:10:06;14.60;68.00
3198;DHT22;1611;49.394;11.136;2023-09-08T06:12:33;14.60;67.80
3198;DHT22;1611;49.394;11.136;2023-09-08T06:15:01;14.70;68.00
3198;DHT22;1611;49.394;11.136;2023-09-08T06:17:30;14.80;67.60
3198;DHT22;1611;49.394;11.136;2023-09-08T06:19:56;14.80;67.50
3198;DHT22;1611;49.394;11.136;2023-09-08T06:22:23;14.90;67.40
3198;DHT22;1611;49.394;11.136;2023-09-08T06:24:50;14.90;67.60
3198;DHT22;1611;49.394;11.136;2023-09-08T06:27:17;15.00;67.40
3198;DHT22;1611;49.394;11.136;2023-09-08T06:29:43;15.10;67.60
3198;DHT22;1611;49.394;11.136;2023-09-08T06:32:10;15.20;67.50
3198;DHT22;1611;49.394;11.136;2023-09-08T06:34:38;15.30;67.70
3198;DHT22;1611;49.394;11.136;2023-09-08T06:37:05;15.40;67.50
3198;DHT22;1611;49.394;11.136;2023-09-08T06:39:32;15.50;67.40
3198;DHT22;1611;49.394;11.136;2023-09-08T06:41:59;15.60;67.10
3198;DHT22;1611;49.394;11.136;2023-09-08T06:44:25;15.70;67.10
3198;DHT22;1611;49.394;11.136;2023-09-08T06:46:52;15.80;66.80
3198;DHT22;1611;49.394;11.136;2023-09-08T06:49:19;15.90;66.70
3198;DHT22;1611;49.394;11.136;2023-09-08T06:51:48;16.00;66.80
3198;DHT22;1611;49.394;11.136;2023-09-08T06:54:14;16.10;66.60
3198;DHT22;1611;49.394;11.136;2023-09-08T06:56:41;16.20;66.50
3198;DHT22;1611;49.394;11.136;2023-09-08T06:59:08;16.30;66.50
3198;DHT22;1611;49.394;11.136;2023-09-08T07:01:35;16.40;66.40
3198;DHT22;1611;49.394;11.136;2023-09-08T07:04:02;16.50;66.40
3198;DHT22;1611;49.394;11.136;2023-09-08T07:06:28;16.60;66.40
3198;DHT22;1611;49.394;11.136;2023-09-08T07:08:57;16.70;66.30
3198;DHT22;1611;49.394;11.136;2023-09-08T07:11:23;16.90;66.00
3198;DHT22;1611;49.394;11.136;2023-09-08T07:13:50;17.00;65.80
3198;DHT22;1611;49.394;11.136;2023-09-08T07:16:17;17.10;65.50
3198;DHT22;1611;49.394;11.136;2023-09-08T07:18:43;17.20;64.10
3198;DHT22;1611;49.394;11.136;2023-09-08T07:21:10;17.30;63.80
3198;DHT22;1611;49.394;11.136;2023-09-08T07:23:37;17.40;63.70
3198;DHT22;1611;49.394;11.136;2023-09-08T07:26:05;17.50;63.30
3198;DHT22;1611;49.394;11.136;2023-09-08T07:28:32;17.60;62.80
3198;DHT22;1611;49.394;11.136;2023-09-08T07:31:02;17.70;62.70
3198;DHT22;1611;49.394;11.136;2023-09-08T07:33:29;17.80;61.70
3198;DHT22;1611;49.394;11.136;2023-09-08T07:35:56;18.00;60.20
3198;DHT22;1611;49.394;11.136;2023-09-08T07:38:23;18.10;57.70
3198;DHT22;1611;49.394;11.136;2023-09-08T07:40:49;18.30;54.80
3198;DHT22;1611;49.394;11.136;2023-09-08T07:43:17;18.40;53.30
3198;DHT22;1611;49.394;11.136;2023-09-08T07:45:44;18.60;52.20
3198;DHT22;1611;49.394;11.136;2023-09-08T07:48:11;18.70;51.70
3198;DHT22;1611;49.394;11.136;2023-09-08T07:50:38;18.90;51.10
3198;DHT22;1611;49.394;11.136;2023-09-08T07:53:04;19.00;52.80
3198;DHT22;1611;49.394;11.136;2023-09-08T07:55:31;19.10;51.40
3198;DHT22;1611;49.394;11.136;2023-09-08T07:58:01;19.20;51.20
3198;DHT22;1611;49.394;11.136;2023-09-08T08:00:30;19.30;50.30
3198;DHT22;1611;49.394;11.136;2023-09-08T08:02:57;19.50;49.70
3198;DHT22;1611;49.394;11.136;2023-09-08T08:05:24;19.60;49.20
3198;DHT22;1611;49.394;11.136;2023-09-08T08:07:51;19.70;48.50
3198;DHT22;1611;49.394;11.136;2023-09-08T08:10:18;19.80;49.30
3198;DHT22;1611;49.394;11.136;2023-09-08T08:12:45;20.00;48.40
3198;DHT22;1611;49.394;11.136;2023-09-08T08:15:12;20.10;46.50
3198;DHT22;1611;49.394;11.136;2023-09-08T08:17:40;20.20;50.40
3198;DHT22;1611;49.394;11.136;2023-09-08T08:20:10;20.30;48.40
3198;DHT22;1611;49.394;11.136;2023-09-08T08:22:42;20.40;49.30
3198;DHT22;1611;49.394;11.136;2023-09-08T08:25:09;20.40;49.10
3198;DHT22;1611;49.394;11.136;2023-09-08T08:27:36;20.60;46.50
3198;DHT22;1611;49.394;11.136;2023-09-08T08:30:04;20.70;49.10
3198;DHT22;1611;49.394;11.136;2023-09-08T08:32:31;20.80;46.80
3198;DHT22;1611;49.394;11.136;2023-09-08T08:34:59;20.80;45.10
3198;DHT22;1611;49.394;11.136;2023-09-08T08:37:26;20.90;47.30
3198;DHT22;1611;49.394;11.136;2023-09-08T08:39:53;21.10;46.90
3198;DHT22;1611;49.394;11.136;2023-09-08T08:42:20;21.10;44.30
3198;DHT22;1611;49.394;11.136;2023-09-08T08:44:47;21.20;43.90
3198;DHT22;1611;49.394;11.136;2023-09-08T08:47:16;21.30;43.10
3198;DHT22;1611;49.394;11.136;2023-09-08T08:49:44;21.40;40.30
3198;DHT22;1611;49.394;11.136;2023-09-08T08:52:14;21.50;39.60
3198;DHT22;1611;49.394;11.136;2023-09-08T08:54:41;21.60;40.20
3198;DHT22;1611;49.394;11.136;2023-09-08T08:57:11;21.70;37.40
3198;DHT22;1611;49.394;11.136;2023-09-08T08:59:38;21.70;38.70
3198;DHT22;1611;49.394;11.136;2023-09-08T09:02:09;21.80;37.20
3198;DHT22;1611;49.394;11.136;2023-09-08T09:04:38;21.90;37.70
3198;DHT22;1611;49.394;11.136;2023-09-08T09:07:06;22.00;36.20
3198;DHT22;1611;49.394;11.136;2023-09-08T09:09:34;22.10;42.30
3198;DHT22;1611;49.394;11.136;2023-09-08T09:12:01;22.00;42.20
3198;DHT22;1611;49.394;11.136;2023-09-08T09:14:31;22.10;38.80
3198;DHT22;1611;49.394;11.136;2023-09-08T09:16:58;22.10;38.00
3198;DHT22;1611;49.394;11.136;2023-09-08T09:19:25;22.20;38.60
3198;DHT22;1611;49.394;11.136;2023-09-08T09:21:54;22.40;37.10
3198;DHT22;1611;49.394;11.136;2023-09-08T09:24:30;22.40;37.40
3198;DHT22;1611;49.394;11.136;2023-09-08T09:26:58;22.50;34.30
3198;DHT22;1611;49.394;11.136;2023-09-08T09:29:26;22.60;35.00
3198;DHT22;1611;49.394;11.136;2023-09-08T09:31:54;22.70;33.80
3198;DHT22;1611;49.394;11.136;2023-09-08T09:34:21;22.90;34.50
3198;DHT22;1611;49.394;11.136;2023-09-08T09:36:48;23.00;33.70
3198;DHT22;1611;49.394;11.136;2023-09-08T09:39:19;23.00;34.10
3198;DHT22;1611;49.394;11.136;2023-09-08T09:41:47;23.10;34.30
3198;DHT22;1611;49.394;11.136;2023-09-08T09:44:15;23.20;33.40
3198;DHT22;1611;49.394;11.136;2023-09-08T09:46:46;23.30;32.80
3198;DHT22;1611;49.394;11.136;2023-09-08T09:49:14;23.40;32.40
3198;DHT22;1611;49.394;11.136;2023-09-08T09:51:44;23.50;31.50
3198;DHT22;1611;49.394;11.136;2023-09-08T09:54:11;23.60;30.70
3198;DHT22;1611;49.394;11.136;2023-09-08T09:56:39;23.70;30.10
3198;DHT22;1611;49.394;11.136;2023-09-08T09:59:08;23.80;30.50
3198;DHT22;1611;49.394;11.136;2023-09-08T10:01:37;23.90;29.50
3198;DHT22;1611;49.394;11.136;2023-09-08T10:04:05;24.10;31.20
3198;DHT22;1611;49.394;11.136;2023-09-08T10:06:34;24.30;30.10
3198;DHT22;1611;49.394;11.136;2023-09-08T10:09:02;24.60;28.00
3198;DHT22;1611;49.394;11.136;2023-09-08T10:11:35;24.90;28.20
3198;DHT22;1611;49.394;11.136;2023-09-08T10:14:04;25.20;28.30
3198;DHT22;1611;49.394;11.136;2023-09-08T10:16:35;25.20;27.80
3198;DHT22;1611;49.394;11.136;2023-09-08T10:19:07;25.40;27.40
3198;DHT22;1611;49.394;11.136;2023-09-08T10:21:36;25.70;26.30
3198;DHT22;1611;49.394;11.136;2023-09-08T10:24:14;26.00;23.90
3198;DHT22;1611;49.394;11.136;2023-09-08T10:26:44;26.20;23.00
3198;DHT22;1611;49.394;11.136;2023-09-08T10:29:12;26.40;23.00
3198;DHT22;1611;49.394;11.136;2023-09-08T10:31:40;26.80;22.60
3198;DHT22;1611;49.394;11.136;2023-09-08T10:34:08;27.40;21.10
3198;DHT22;1611;49.394;11.136;2023-09-08T10:36:35;28.10;21.20
3198;DHT22;1611;49.394;11.136;2023-09-08T10:39:28;29.00;18.80
3198;DHT22;1611;49.394;11.136;2023-09-08T10:42:19;30.10;16.00
3198;DHT22;1611;49.394;11.136;2023-09-08T10:44:56;31.40;15.40
3198;DHT22;1611;49.394;11.136;2023-09-08T10:47:24;32.50;12.50
3198;DHT22;1611;49.394;11.136;2023-09-08T10:49:52;33.50;11.80
3198;DHT22;1611;49.394;11.136;2023-09-08T10:52:24;34.20;11.10
3198;DHT22;1611;49.394;11.136;2023-09-08T10:54:52;35.20;9.50
3198;DHT22;1611;49.394;11.136;2023-09-08T10:57:21;36.40;8.00
3198;DHT22;1611;49.394;11.136;2023-09-08T10:59:51;37.50;6.90
3198;DHT22;1611;49.394;11.136;2023-09-08T11:02:34;38.20;6.00
3198;DHT22;1611;49.394;11.136;2023-09-08T11:05:04;38.80;6.30
3198;DHT22;1611;49.394;11.136;2023-09-08T11:07:33;39.60;5.70
3198;DHT22;1611;49.394;11.136;2023-09-08T11:10:00;39.80;2.80
3198;DHT22;1611;49.394;11.136;2023-09-08T11:12:27;40.60;2.80
3198;DHT22;1611;49.394;11.136;2023-09-08T11:14:54;41.50;2.00
3198;DHT22;1611;49.394;11.136;2023-09-08T11:17:24;42.00;1.20
3198;DHT22;1611;49.394;11.136;2023-09-08T11:19:51;42.00;1.10
3198;DHT22;1611;49.394;11.136;2023-09-08T11:22:22;42.50;1.40
3198;DHT22;1611;49.394;11.136;2023-09-08T11:24:50;43.10;1.00
3198;DHT22;1611;49.394;11.136;2023-09-08T11:27:17;43.70;1.00
3198;DHT22;1611;49.394;11.136;2023-09-08T11:29:44;43.90;1.00
3198;DHT22;1611;49.394;11.136;2023-09-08T11:32:11;43.80;1.00
3198;DHT22;1611;49.394;11.136;2023-09-08T11:34:39;44.20;1.00
3198;DHT22;1611;49.394;11.136;2023-09-08T11:37:08;44.70;1.00
3198;DHT22;1611;49.394;11.136;2023-09-08T11:39:37;45.20;1.00
3198;DHT22;1611;49.394;11.136;2023-09-08T11:42:05;44.40;1.00
3198;DHT22;1611;49.394;11.136;2023-09-08T11:44:32;44.80;1.00
3198;DHT22;1611;49.394;11.136;2023-09-08T11:46:59;45.00;1.00
3198;DHT22;1611;49.394;11.136;2023-09-08T11:49:26;45.00;1.00
3198;DHT22;1611;49.394;11.136;2023-09-08T11:51:53;45.30;1.00
3198;DHT22;1611;49.394;11.136;2023-09-08T11:54:22;45.50;1.00
3198;DHT22;1611;49.394;11.136;2023-09-08T11:56:50;45.80;1.00
3198;DHT22;1611;49.394;11.136;2023-09-08T11:59:17;46.30;1.00
3198;DHT22;1611;49.394;11.136;2023-09-08T12:01:44;47.00;1.00
3198;DHT22;1611;49.394;11.136;2023-09-08T12:04:17;47.30;1.00
3198;DHT22;1611;49.394;11.136;2023-09-08T12:06:44;47.60;1.00
3198;DHT22;1611;49.394;11.136;2023-09-08T12:09:11;47.80;1.00
3198;DHT22;1611;49.394;11.136;2023-09-08T12:11:39;47.30;1.00
3198;DHT22;1611;49.394;11.136;2023-09-08T12:14:11;47.00;1.00
3198;DHT22;1611;49.394;11.136;2023-09-08T12:16:38;47.00;1.00
3198;DHT22;1611;49.394;11.136;2023-09-08T12:19:04;45.70;1.00
3198;DHT22;1611;49.394;11.136;2023-09-08T12:21:32;43.80;1.00
3198;DHT22;1611;49.394;11.136;2023-09-08T12:23:59;42.10;1.00
3198;DHT22;1611;49.394;11.136;2023-09-08T12:26:25;40.60;1.00
3198;DHT22;1611;49.394;11.136;2023-09-08T12:28:52;40.00;1.10
3198;DHT22;1611;49.394;11.136;2023-09-08T12:31:21;38.90;2.60
3198;DHT22;1611;49.394;11.136;2023-09-08T12:33:48;37.80;3.10
3198;DHT22;1611;49.394;11.136;2023-09-08T12:36:17;37.20;4.30
3198;DHT22;1611;49.394;11.136;2023-09-08T12:38:47;36.40;3.70
3198;DHT22;1611;49.394;11.136;2023-09-08T12:41:14;35.50;4.50
3198;DHT22;1611;49.394;11.136;2023-09-08T12:43:41;34.30;6.40
3198;DHT22;1611;49.394;11.136;2023-09-08T12:46:08;33.70;7.90
3198;DHT22;1611;49.394;11.136;2023-09-08T12:48:36;32.80;9.40
3198;DHT22;1611;49.394;11.136;2023-09-08T12:51:03;32.30;9.00
3198;DHT22;1611;49.394;11.136;2023-09-08T12:53:32;31.60;10.80
3198;DHT22;1611;49.394;11.136;2023-09-08T12:55:59;30.90;9.60
3198;DHT22;1611;49.394;11.136;2023-09-08T12:58:26;30.30;13.30
3198;DHT22;1611;49.394;11.136;2023-09-08T13:00:54;29.90;15.60
3198;DHT22;1611;49.394;11.136;2023-09-08T13:03:21;29.90;14.30
3198;DHT22;1611;49.394;11.136;2023-09-08T13:05:49;30.50;15.20
3198;DHT22;1611;49.394;11.136;2023-09-08T13:08:16;32.80;11.30
3198;DHT22;1611;49.394;11.136;2023-09-08T13:10:43;34.90;6.90
3198;DHT22;1611;49.394;11.136;2023-09-08T13:13:09;35.10;8.00
3198;DHT22;1611;49.394;11.136;2023-09-08T13:15:36;34.50;9.40
3198;DHT22;1611;49.394;11.136;2023-09-08T13:18:03;33.80;10.20
3198;DHT22;1611;49.394;11.136;2023-09-08T13:20:30;33.20;9.30
3198;DHT22;1611;49.394;11.136;2023-09-08T13:22:58;33.90;8.10
3198;DHT22;1611;49.394;11.136;2023-09-08T13:25:25;34.60;6.90
3198;DHT22;1611;49.394;11.136;2023-09-08T13:27:52;34.50;6.40
3198;DHT22;1611;49.394;11.136;2023-09-08T13:30:19;34.50;7.30
3198;DHT22;1611;49.394;11.136;2023-09-08T13:32:47;35.70;7.20
3198;DHT22;1611;49.394;11.136;2023-09-08T13:35:14;35.80;6.30
3198;DHT22;1611;49.394;11.136;2023-09-08T13:37:41;34.90;8.00
3198;DHT22;1611;49.394;11.136;2023-09-08T13:40:09;33.90;9.80
3198;DHT22;1611;49.394;11.136;2023-09-08T13:42:36;32.90;11.10
3198;DHT22;1611;49.394;11.136;2023-09-08T13:45:04;32.00;12.40
3198;DHT22;1611;49.394;11.136;2023-09-08T13:47:31;31.40;13.30
3198;DHT22;1611;49.394;11.136;2023-09-08T13:49:58;30.80;14.50
3198;DHT22;1611;49.394;11.136;2023-09-08T13:52:25;30.90;15.00
3198;DHT22;1611;49.394;11.136;2023-09-08T13:54:53;31.20;14.10
3198;DHT22;1611;49.394;11.136;2023-09-08T13:57:21;31.10;13.80
3198;DHT22;1611;49.394;11.136;2023-09-08T13:59:51;31.00;14.90
3198;DHT22;1611;49.394;11.136;2023-09-08T14:02:19;30.40;14.60
3198;DHT22;1611;49.394;11.136;2023-09-08T14:04:46;29.90;15.90
3198;DHT22;1611;49.394;11.136;2023-09-08T14:07:13;29.40;15.20
3198;DHT22;1611;49.394;11.136;2023-09-08T14:09:40;29.00;15.40
3198;DHT22;1611;49.394;11.136;2023-09-08T14:12:07;28.60;14.30
3198;DHT22;1611;49.394;11.136;2023-09-08T14:14:35;28.30;16.30
3198;DHT22;1611;49.394;11.136;2023-09-08T14:17:02;28.10;16.20
3198;DHT22;1611;49.394;11.136;2023-09-08T14:19:28;27.90;16.20
3198;DHT22;1611;49.394;11.136;2023-09-08T14:21:55;27.70;17.20
3198;DHT22;1611;49.394;11.136;2023-09-08T14:24:23;27.60;18.10
3198;DHT22;1611;49.394;11.136;2023-09-08T14:26:50;27.40;19.40
3198;DHT22;1611;49.394;11.136;2023-09-08T14:29:18;27.30;20.50
3198;DHT22;1611;49.394;11.136;2023-09-08T14:31:46;27.30;17.60
3198;DHT22;1611;49.394;11.136;2023-09-08T14:34:13;27.30;16.10
3198;DHT22;1611;49.394;11.136;2023-09-08T14:36:40;27.20;20.80
3198;DHT22;1611;49.394;11.136;2023-09-08T14:39:07;27.20;16.40
3198;DHT22;1611;49.394;11.136;2023-09-08T14:41:34;27.00;21.60
3198;DHT22;1611;49.394;11.136;2023-09-08T14:44:00;26.80;21.30
3198;DHT22;1611;49.394;11.136;2023-09-08T14:46:27;26.80;22.10
3198;DHT22;1611;49.394;11.136;2023-09-08T14:48:55;26.60;21.80
3198;DHT22;1611;49.394;11.136;2023-09-08T14:51:22;26.50;22.30
3198;DHT22;1611;49.394;11.136;2023-09-08T14:53:49;26.50;19.00
3198;DHT22;1611;49.394;11.136;2023-09-08T14:56:16;26.60;21.60
3198;DHT22;1611;49.394;11.136;2023-09-08T14:58:43;27.00;21.00
3198;DHT22;1611;49.394;11.136;2023-09-08T15:01:10;27.30;19.60
3198;DHT22;1611;49.394;11.136;2023-09-08T15:03:39;28.20;18.90
3198;DHT22;1611;49.394;11.136;2023-09-08T15:06:08;29.30;17.80
3198;DHT22;1611;49.394;11.136;2023-09-08T15:08:35;29.50;14.90
3198;DHT22;1611;49.394;11.136;2023-09-08T15:11:02;29.50;13.00
3198;DHT22;1611;49.394;11.136;2023-09-08T15:13:29;29.30;16.00
3198;DHT22;1611;49.394;11.136;2023-09-08T15:15:57;29.60;16.60
3198;DHT22;1611;49.394;11.136;2023-09-08T15:18:24;30.20;14.70
3198;DHT22;1611;49.394;11.136;2023-09-08T15:20:53;30.50;15.50
3198;DHT22;1611;49.394;11.136;2023-09-08T15:23:21;30.10;15.30
3198;DHT22;1611;49.394;11.136;2023-09-08T15:25:52;29.60;16.60
3198;DHT22;1611;49.394;11.136;2023-09-08T15:28:19;29.30;17.80
3198;DHT22;1611;49.394;11.136;2023-09-08T15:30:49;29.30;17.70
3198;DHT22;1611;49.394;11.136;2023-09-08T15:33:16;30.10;16.30
3198;DHT22;1611;49.394;11.136;2023-09-08T15:35:45;30.50;16.50
3198;DHT22;1611;49.394;11.136;2023-09-08T15:38:12;30.00;17.40
3198;DHT22;1611;49.394;11.136;2023-09-08T15:41:13;29.20;18.10
3198;DHT22;1611;49.394;11.136;2023-09-08T15:43:45;28.50;19.60
3198;DHT22;1611;49.394;11.136;2023-09-08T15:46:12;27.90;20.00
3198;DHT22;1611;49.394;11.136;2023-09-08T15:48:39;27.30;22.10
3198;DHT22;1611;49.394;11.136;2023-09-08T15:51:07;26.90;22.20